createdAt,value
2023-05-23T00:02:54.763Z,16.42
2023-05-23T00:06:57.890Z,18.55
2023-05-23T00:11:02.562Z,17.83
2023-05-23T00:15:08.884Z,20.23
2023-05-23T00:19:14.811Z,17.15
2023-05-23T00:23:20.942Z,15.65
2023-05-23T00:27:28.579Z,15.45
2023-05-23T00:31:34.113Z,16.40
2023-05-23T00:35:39.532Z,18.15
2023-05-23T00:39:45.860Z,14.98
2023-05-23T00:43:51.444Z,22.65
2023-05-23T00:47:54.988Z,18.33
2023-05-23T00:51:58.178Z,18.08
2023-05-23T00:56:01.976Z,17.90
2023-05-23T01:00:10.230Z,21.90
2023-05-23T01:04:14.433Z,17.40
2023-05-23T01:08:21.051Z,17.48
2023-05-23T01:12:31.110Z,14.82
2023-05-23T01:16:48.629Z,16.30
2023-05-23T01:20:58.525Z,17.58
2023-05-23T01:25:14.645Z,17.10
2023-05-23T01:29:26.510Z,15.43
2023-05-23T01:33:30.836Z,15.82
2023-05-23T01:37:33.966Z,15.43
2023-05-23T01:41:37.250Z,15.43
2023-05-23T01:45:44.505Z,18.13
2023-05-23T01:49:52.126Z,17.83
2023-05-23T01:53:55.685Z,19.55
2023-05-23T01:58:00.775Z,17.55
2023-05-23T02:02:10.702Z,17.90
2023-05-23T02:06:16.498Z,18.40
2023-05-23T02:10:20.334Z,14.40
2023-05-23T02:14:24.346Z,18.30
2023-05-23T02:18:29.425Z,14.65
2023-05-23T02:22:34.223Z,14.63
2023-05-23T02:26:39.922Z,16.00
2023-05-23T02:30:45.260Z,17.33
2023-05-23T02:34:52.927Z,16.98
2023-05-23T02:38:58.976Z,16.45
2023-05-23T02:43:04.479Z,15.68
2023-05-23T02:47:07.677Z,15.60
2023-05-23T02:51:14.655Z,14.32
2023-05-23T02:55:17.905Z,16.13
2023-05-23T02:59:22.199Z,20.77
2023-05-23T03:03:29.017Z,17.13
2023-05-23T03:07:36.784Z,17.95
2023-05-23T03:11:42.465Z,16.02
2023-05-23T03:15:46.282Z,17.90
2023-05-23T03:19:49.424Z,16.75
2023-05-23T03:23:56.608Z,15.52
2023-05-23T03:27:59.790Z,15.05
2023-05-23T03:32:03.026Z,18.17
2023-05-23T03:36:09.097Z,16.15
2023-05-23T03:40:16.040Z,16.80
2023-05-23T03:44:19.151Z,18.33
2023-05-23T03:48:24.469Z,15.45
2023-05-23T03:52:29.562Z,16.10
2023-05-23T03:56:34.163Z,17.30
2023-05-23T04:00:39.956Z,17.02
2023-05-23T04:04:48.764Z,16.30
2023-05-23T04:08:52.024Z,16.63
2023-05-23T04:12:58.956Z,15.18
2023-05-23T04:17:07.124Z,15.68
2023-05-23T04:21:10.238Z,16.00
2023-05-23T04:25:13.870Z,15.50
2023-05-23T04:29:18.402Z,16.38
2023-05-23T04:33:23.206Z,18.55
2023-05-23T04:37:30.111Z,17.65
2023-05-23T04:41:33.368Z,15.05
2023-05-23T04:45:39.314Z,16.50
2023-05-23T04:49:42.661Z,16.65
2023-05-23T04:53:45.838Z,16.45
2023-05-23T04:57:51.720Z,15.27
2023-05-23T05:01:56.374Z,13.82
2023-05-23T05:06:01.992Z,21.08
2023-05-23T05:10:05.702Z,15.63
2023-05-23T05:14:08.894Z,16.42
2023-05-23T05:18:13.739Z,17.30
2023-05-23T05:22:17.226Z,16.42
2023-05-23T05:26:21.654Z,15.05
2023-05-23T05:30:24.864Z,14.68
2023-05-23T05:34:31.257Z,16.33
2023-05-23T05:38:36.139Z,14.30
2023-05-23T05:42:39.278Z,15.05
2023-05-23T05:46:42.448Z,13.95
2023-05-23T05:50:46.995Z,12.95
2023-05-23T05:54:52.806Z,17.08
2023-05-23T05:58:55.998Z,14.73
2023-05-23T06:03:05.672Z,15.90
2023-05-23T06:07:13.555Z,17.95
2023-05-23T06:11:16.607Z,12.60
2023-05-23T06:15:19.743Z,14.90
2023-05-23T06:19:25.786Z,14.60
2023-05-23T06:23:30.444Z,12.30
2023-05-23T06:27:38.180Z,16.20
2023-05-23T06:31:41.363Z,13.43
2023-05-23T06:35:45.634Z,16.27
2023-05-23T06:39:50.117Z,13.65
2023-05-23T06:43:54.982Z,15.82
2023-05-23T06:48:01.479Z,11.23
2023-05-23T06:52:06.270Z,14.70
2023-05-23T06:56:10.772Z,12.95
2023-05-23T07:00:15.537Z,12.80
2023-05-23T07:04:18.694Z,16.65
2023-05-23T07:08:26.799Z,13.25
2023-05-23T07:12:34.797Z,10.43
2023-05-23T07:16:41.188Z,16.15
2023-05-23T07:20:44.286Z,13.90
2023-05-23T07:24:49.277Z,11.77
2023-05-23T07:28:55.723Z,12.60
2023-05-23T07:33:02.015Z,12.07
2023-05-23T07:37:08.073Z,12.70
2023-05-23T07:41:12.496Z,11.02
2023-05-23T07:45:17.257Z,13.40
2023-05-23T07:49:22.648Z,13.48
2023-05-23T07:53:30.026Z,15.40
2023-05-23T07:57:35.703Z,10.88
2023-05-23T08:01:40.663Z,9.75
2023-05-23T08:05:46.523Z,12.02
2023-05-23T08:09:49.592Z,9.77
2023-05-23T08:13:56.017Z,10.40
2023-05-23T08:18:03.544Z,10.32
2023-05-23T08:22:09.237Z,11.73
2023-05-23T08:26:12.579Z,11.18
2023-05-23T08:30:18.420Z,7.57
2023-05-23T08:34:25.697Z,9.23
2023-05-23T08:38:32.840Z,12.05
2023-05-23T08:42:37.832Z,11.75
2023-05-23T08:46:47.093Z,12.27
2023-05-23T08:50:54.558Z,12.13
2023-05-23T08:55:00.254Z,9.38
2023-05-23T08:59:03.997Z,11.90
2023-05-23T09:03:07.348Z,10.55
2023-05-23T09:07:16.889Z,13.18
2023-05-23T09:11:24.411Z,10.70
2023-05-23T09:15:27.645Z,8.60
2023-05-23T09:19:31.637Z,13.98
2023-05-23T09:23:40.281Z,10.85
2023-05-23T09:27:47.586Z,13.10
2023-05-23T09:31:51.646Z,9.70
2023-05-23T09:35:55.452Z,12.38
2023-05-23T09:40:00.911Z,12.40
2023-05-23T09:44:08.008Z,11.00
2023-05-23T09:48:16.969Z,9.75
2023-05-23T09:52:20.376Z,17.73
2023-05-23T09:56:28.483Z,13.70
2023-05-23T10:00:33.265Z,12.10
2023-05-23T10:04:37.457Z,10.95
2023-05-23T10:08:44.968Z,10.40
2023-05-23T10:12:52.981Z,11.25
2023-05-23T10:17:03.270Z,11.70
2023-05-23T10:21:21.963Z,9.10
2023-05-23T10:25:25.857Z,13.65
2023-05-23T10:29:31.206Z,16.40
2023-05-23T10:33:45.739Z,13.80
2023-05-23T10:37:58.178Z,15.65
2023-05-23T10:42:09.796Z,14.57
2023-05-23T10:46:21.023Z,11.43
2023-05-23T10:50:34.779Z,13.20
2023-05-23T10:54:45.276Z,11.85
2023-05-23T10:58:48.527Z,13.13
2023-05-23T11:03:01.799Z,10.00
2023-05-23T11:07:05.164Z,12.45
2023-05-23T11:11:08.271Z,15.43
2023-05-23T11:15:21.961Z,9.80
2023-05-23T11:19:29.958Z,10.38
2023-05-23T11:23:42.589Z,10.15
2023-05-23T11:27:47.958Z,10.90
2023-05-23T11:31:51.316Z,11.43
2023-05-23T11:35:55.895Z,9.63
2023-05-23T11:39:59.301Z,8.57
2023-05-23T11:44:14.228Z,9.65
2023-05-23T11:48:21.461Z,10.20
2023-05-23T11:52:26.272Z,11.45
2023-05-23T11:56:33.738Z,8.75
2023-05-23T12:00:36.850Z,14.05
2023-05-23T12:04:40.011Z,10.38
2023-05-23T12:08:46.316Z,10.00
2023-05-23T12:12:49.887Z,9.55
2023-05-23T12:16:58.848Z,10.77
2023-05-23T12:21:03.459Z,7.95
2023-05-23T12:25:13.724Z,9.38
2023-05-23T12:29:19.513Z,10.73
2023-05-23T12:33:23.475Z,11.88
2023-05-23T12:37:26.944Z,9.05
2023-05-23T12:41:31.745Z,8.23
2023-05-23T12:45:37.132Z,8.00
2023-05-23T12:49:40.482Z,13.25
2023-05-23T12:53:43.630Z,8.82
2023-05-23T12:57:50.999Z,8.10
2023-05-23T13:01:54.043Z,7.75
2023-05-23T13:05:57.533Z,9.75
2023-05-23T13:10:03.277Z,9.70
2023-05-23T13:14:07.874Z,7.15
2023-05-23T13:18:12.947Z,11.75
2023-05-23T13:22:17.206Z,11.02
2023-05-23T13:26:23.385Z,9.77
2023-05-23T13:30:30.350Z,13.93
2023-05-23T13:34:37.598Z,7.90
2023-05-23T13:38:42.572Z,7.97
2023-05-23T13:42:49.092Z,7.80
2023-05-23T13:46:57.035Z,7.13
2023-05-23T13:51:02.444Z,7.10
2023-05-23T13:55:11.009Z,7.32
2023-05-23T13:59:21.086Z,5.35
2023-05-23T14:03:28.663Z,5.53
2023-05-23T14:07:32.465Z,8.27
2023-05-23T14:11:37.804Z,6.10
2023-05-23T14:15:44.038Z,8.07
2023-05-23T14:19:51.506Z,5.15
2023-05-23T14:23:57.654Z,5.72
2023-05-23T14:28:02.065Z,5.05
2023-05-23T14:32:07.821Z,4.78
2023-05-23T14:36:14.784Z,4.30
2023-05-23T14:40:18.890Z,4.18
2023-05-23T14:44:23.217Z,5.20
2023-05-23T14:48:26.692Z,4.30
2023-05-23T14:52:31.135Z,4.05
2023-05-23T14:56:34.194Z,3.95
2023-05-23T15:00:37.220Z,3.63
2023-05-23T15:04:42.097Z,3.17
2023-05-23T15:08:49.362Z,4.70
2023-05-23T15:12:53.441Z,6.13
2023-05-23T15:16:57.242Z,3.60
2023-05-23T15:21:02.459Z,3.60
2023-05-23T15:25:08.296Z,4.13
2023-05-23T15:29:12.554Z,3.25
2023-05-23T15:33:16.034Z,2.90
2023-05-23T15:37:19.582Z,2.90
2023-05-23T15:41:24.438Z,3.17
2023-05-23T15:45:27.517Z,6.82
2023-05-23T15:49:30.888Z,4.63
2023-05-23T15:53:40.112Z,5.38
2023-05-23T15:57:52.659Z,4.43
2023-05-23T16:01:56.271Z,3.20
2023-05-23T16:06:00.869Z,4.75
2023-05-23T16:10:10.040Z,4.70
2023-05-23T16:14:14.690Z,4.72
2023-05-23T16:18:22.029Z,3.53
2023-05-23T16:22:30.263Z,4.68
2023-05-23T16:26:33.274Z,4.18
2023-05-23T16:30:42.106Z,3.97
2023-05-23T16:34:50.824Z,4.03
2023-05-23T16:38:57.158Z,4.75
2023-05-23T16:43:00.422Z,4.68
2023-05-23T16:47:05.466Z,3.70
2023-05-23T16:51:08.928Z,5.47
2023-05-23T16:55:15.457Z,5.13
2023-05-23T16:59:18.762Z,6.97
2023-05-23T17:03:23.521Z,3.17
2023-05-23T17:07:28.822Z,3.28
2023-05-23T17:11:31.874Z,3.40
2023-05-23T17:15:36.631Z,3.78
2023-05-23T17:19:41.448Z,4.43
2023-05-23T17:23:44.857Z,3.88
2023-05-23T17:27:47.946Z,3.90
2023-05-23T17:31:52.973Z,3.92
2023-05-23T17:35:57.422Z,3.35
2023-05-23T17:40:02.378Z,5.80
2023-05-23T17:44:08.639Z,3.13
2023-05-23T17:48:12.876Z,3.22
2023-05-23T17:52:20.299Z,3.55
2023-05-23T17:56:25.016Z,3.33
2023-05-23T18:00:28.165Z,3.22
2023-05-23T18:04:31.462Z,3.63
2023-05-23T18:08:44.992Z,3.08
2023-05-23T18:12:48.232Z,3.63
2023-05-23T18:16:54.032Z,3.47
2023-05-23T18:20:57.111Z,3.92
2023-05-23T18:25:01.599Z,3.17
2023-05-23T18:29:13.638Z,4.88
2023-05-23T18:33:18.324Z,3.97
2023-05-23T18:37:21.702Z,3.60
2023-05-23T18:41:31.679Z,4.60
2023-05-23T18:45:34.716Z,3.30
2023-05-23T18:49:39.871Z,3.47
2023-05-23T18:53:43.246Z,4.63
2023-05-23T18:57:48.988Z,3.47
2023-05-23T19:01:52.356Z,3.40
2023-05-23T19:05:59.661Z,4.40
2023-05-23T19:10:04.765Z,3.88
2023-05-23T19:14:09.276Z,3.33
2023-05-23T19:18:12.391Z,4.72
2023-05-23T19:22:16.414Z,3.42
2023-05-23T19:26:20.589Z,3.60
2023-05-23T19:30:28.437Z,3.33
2023-05-23T19:34:34.964Z,3.47
2023-05-23T19:38:43.319Z,3.10
2023-05-23T19:42:50.020Z,6.53
2023-05-23T19:46:56.933Z,3.92
2023-05-23T19:51:00.462Z,3.28
2023-05-23T19:55:04.209Z,6.07
2023-05-23T19:59:09.638Z,4.53
2023-05-23T20:03:14.196Z,3.35
2023-05-23T20:07:17.272Z,3.15
2023-05-23T20:11:20.577Z,3.40
2023-05-23T20:15:38.149Z,7.93
2023-05-23T20:19:44.403Z,3.40
2023-05-23T20:23:49.761Z,4.30
2023-05-23T20:27:53.021Z,5.22
2023-05-23T20:31:59.029Z,3.45
2023-05-23T20:36:03.724Z,4.35
2023-05-23T20:40:10.293Z,3.80
2023-05-23T20:44:14.959Z,6.28
2023-05-23T20:48:20.669Z,3.40
2023-05-23T20:52:26.855Z,5.25
2023-05-23T20:56:32.895Z,4.85
2023-05-23T21:00:44.874Z,4.30
2023-05-23T21:04:48.900Z,3.65
2023-05-23T21:08:53.413Z,6.15
2023-05-23T21:12:58.104Z,6.88
2023-05-23T21:17:01.185Z,4.13
2023-05-23T21:21:04.778Z,4.60
2023-05-23T21:25:10.340Z,4.00
2023-05-23T21:29:13.964Z,4.85
2023-05-23T21:33:19.701Z,3.47
2023-05-23T21:37:22.755Z,4.22
2023-05-23T21:41:30.592Z,4.22
2023-05-23T21:45:33.801Z,3.55
2023-05-23T21:49:40.325Z,4.22
2023-05-23T21:53:48.803Z,3.67
2023-05-23T21:57:53.281Z,3.47
2023-05-23T22:01:58.714Z,3.58
2023-05-23T22:06:02.139Z,3.17
2023-05-23T22:10:05.528Z,5.55
2023-05-23T22:14:11.609Z,3.33
2023-05-23T22:18:20.003Z,3.20
2023-05-23T22:22:25.934Z,4.80
2023-05-23T22:26:30.645Z,4.63
2023-05-23T22:30:38.682Z,3.53
2023-05-23T22:34:41.755Z,3.70
2023-05-23T22:38:44.947Z,5.13
2023-05-23T22:42:47.945Z,3.78
2023-05-23T22:46:59.064Z,5.40
2023-05-23T22:51:07.160Z,6.78
2023-05-23T22:55:11.164Z,4.97
2023-05-23T22:59:14.197Z,4.40
2023-05-23T23:03:19.364Z,6.05
2023-05-23T23:07:22.553Z,5.75
2023-05-23T23:11:25.797Z,4.55
2023-05-23T23:15:30.317Z,6.80
2023-05-23T23:19:35.364Z,7.35
2023-05-23T23:23:38.600Z,5.07
2023-05-23T23:27:43.385Z,9.35
2023-05-23T23:31:46.522Z,5.60
2023-05-23T23:35:54.932Z,5.15
2023-05-23T23:39:58.013Z,4.28
2023-05-23T23:44:01.166Z,4.22
2023-05-23T23:48:04.298Z,5.13
2023-05-23T23:52:11.322Z,4.60
2023-05-23T23:56:14.323Z,6.30
